Austin, Texas
Traffic Map
Current Weather Conditions
Austin, Texas
Clear
Clear
71°
Feels Like: 71°
Wind Chill: 71° Ceiling: Unl
Heat Index: 71° Visibility: 10mi
Dew Point: 59° Wind: 0mph
Humidity: 66% Direction: ° ()
Pressure: 30.1in Gusts: 0mph
Raw Report DataKATT 260351Z AUTO 00000KT 10SM CLR 22/15 A3010 RMK AO2 SLP184 T02170150
Traffic Incident Summary
Active as of:
Severity:
Category:
InformationThere was an issue retrieving the traffic information for this location. Please try a different location or try again shortly.
Advertisements
Track Severe Weather on mobile